createdAt,value
2018-03-06T00:00:44.636Z,29.42
2018-03-06T00:03:54.741Z,31.62
2018-03-06T00:07:04.360Z,29.40
2018-03-06T00:10:14.844Z,30.08
2018-03-06T00:13:26.076Z,29.02
2018-03-06T00:16:35.885Z,29.90
2018-03-06T00:19:45.868Z,26.75
2018-03-06T00:22:55.774Z,32.35
2018-03-06T00:26:06.050Z,32.47
2018-03-06T00:29:15.901Z,32.25
2018-03-06T00:32:26.483Z,31.33
2018-03-06T00:35:36.653Z,29.83
2018-03-06T00:38:46.893Z,32.08
2018-03-06T00:41:57.441Z,24.23
2018-03-06T00:45:07.894Z,34.58
2018-03-06T00:48:17.871Z,28.60
2018-03-06T00:51:27.847Z,29.00
2018-03-06T00:54:37.896Z,30.62
2018-03-06T00:57:48.212Z,26.08
2018-03-06T01:00:58.279Z,24.30
2018-03-06T01:04:09.036Z,30.33
2018-03-06T01:07:19.239Z,25.80
2018-03-06T01:10:29.145Z,29.27
2018-03-06T01:13:39.871Z,28.08
2018-03-06T01:16:49.949Z,30.05
2018-03-06T01:20:00.826Z,34.22
2018-03-06T01:23:11.233Z,31.67
2018-03-06T01:26:21.329Z,30.23
2018-03-06T01:29:31.929Z,38.60
2018-03-06T01:32:42.862Z,28.87
2018-03-06T01:35:53.613Z,29.17
2018-03-06T01:39:04.630Z,25.62
2018-03-06T01:42:15.477Z,30.58
2018-03-06T01:45:25.799Z,29.75
2018-03-06T01:48:36.021Z,29.58
2018-03-06T01:51:57.819Z,26.10
2018-03-06T01:55:09.531Z,28.85
2018-03-06T01:58:20.165Z,29.00
2018-03-06T02:01:30.226Z,27.37
2018-03-06T02:04:40.559Z,26.80
2018-03-06T02:07:50.699Z,24.25
2018-03-06T02:11:01.778Z,34.00
2018-03-06T02:14:12.127Z,24.08
2018-03-06T02:17:23.038Z,28.10
2018-03-06T02:20:33.978Z,27.55
2018-03-06T02:23:44.493Z,24.67
2018-03-06T02:26:54.807Z,29.73
2018-03-06T02:30:05.816Z,28.40
2018-03-06T02:33:16.093Z,25.17
2018-03-06T02:36:26.243Z,30.67
2018-03-06T02:39:36.489Z,23.92
2018-03-06T02:42:46.675Z,26.92
2018-03-06T02:46:07.984Z,31.05
2018-03-06T02:49:19.380Z,26.87
2018-03-06T02:52:30.540Z,25.20
2018-03-06T02:55:41.806Z,32.60
2018-03-06T02:58:53.175Z,30.27
2018-03-06T03:02:04.246Z,22.02
2018-03-06T03:05:15.346Z,30.95
2018-03-06T03:08:26.690Z,30.50
2018-03-06T03:11:36.680Z,28.98
2018-03-06T03:14:46.898Z,28.40
2018-03-06T03:17:57.009Z,24.37
2018-03-06T03:21:08.521Z,25.40
2018-03-06T03:24:18.386Z,22.33
2018-03-06T03:27:28.575Z,25.83
2018-03-06T03:30:39.401Z,28.12
2018-03-06T03:33:51.033Z,27.30
2018-03-06T03:37:01.132Z,25.80
2018-03-06T03:40:11.389Z,31.77
2018-03-06T03:43:22.272Z,28.75
2018-03-06T03:46:32.560Z,28.30
2018-03-06T03:49:43.505Z,28.12
2018-03-06T03:52:54.339Z,27.20
2018-03-06T03:56:04.363Z,26.30
2018-03-06T03:59:15.003Z,29.25
2018-03-06T04:02:25.020Z,24.02
2018-03-06T04:05:35.593Z,24.02
2018-03-06T04:08:45.951Z,28.02
2018-03-06T04:11:56.692Z,27.95
2018-03-06T04:15:06.536Z,27.27
2018-03-06T04:18:16.850Z,22.85
2018-03-06T04:21:27.896Z,31.25
2018-03-06T04:24:38.061Z,25.90
2018-03-06T04:27:48.600Z,23.83
2018-03-06T04:31:00.557Z,25.60
2018-03-06T04:34:11.538Z,29.92
2018-03-06T04:37:21.970Z,29.60
2018-03-06T04:40:31.955Z,28.42
2018-03-06T04:43:42.580Z,26.30
2018-03-06T04:46:52.402Z,26.08
2018-03-06T04:50:03.128Z,24.80
2018-03-06T04:53:13.026Z,25.17
2018-03-06T04:56:23.627Z,28.00
2018-03-06T04:59:33.797Z,23.70
2018-03-06T05:02:44.070Z,27.52
2018-03-06T05:05:55.019Z,22.10
2018-03-06T05:09:04.886Z,27.98
2018-03-06T05:12:16.366Z,25.58
2018-03-06T05:15:26.948Z,30.20
2018-03-06T05:18:38.866Z,23.75
2018-03-06T05:21:49.523Z,26.00
2018-03-06T05:25:00.479Z,26.70
2018-03-06T05:28:11.316Z,29.08
2018-03-06T05:31:22.146Z,29.10
2018-03-06T05:34:32.647Z,24.73
2018-03-06T05:37:42.746Z,28.23
2018-03-06T05:40:52.987Z,28.67
2018-03-06T05:44:03.146Z,29.17
2018-03-06T05:47:13.595Z,29.80
2018-03-06T05:50:23.997Z,25.52
2018-03-06T05:53:36.202Z,24.00
2018-03-06T05:56:46.611Z,27.30
2018-03-06T05:59:57.517Z,31.15
2018-03-06T06:03:08.583Z,28.00
2018-03-06T06:06:19.655Z,25.77
2018-03-06T06:09:29.671Z,30.00
2018-03-06T06:12:40.514Z,33.50
2018-03-06T06:15:51.073Z,26.62
2018-03-06T06:19:01.621Z,26.45
2018-03-06T06:22:11.511Z,24.27
2018-03-06T06:25:21.261Z,23.42
2018-03-06T06:28:32.492Z,27.65
2018-03-06T06:31:42.639Z,25.88
2018-03-06T06:34:54.042Z,25.37
2018-03-06T06:38:03.981Z,31.85
2018-03-06T06:41:14.395Z,27.52
2018-03-06T06:44:25.317Z,32.70
2018-03-06T06:47:35.551Z,32.25
2018-03-06T06:50:46.142Z,28.33
2018-03-06T06:53:56.666Z,30.30
2018-03-06T06:57:06.600Z,31.50
2018-03-06T07:00:17.313Z,30.52
2018-03-06T07:03:28.451Z,32.33
2018-03-06T07:06:38.616Z,31.27
2018-03-06T07:09:49.359Z,29.55
2018-03-06T07:13:00.098Z,36.65
2018-03-06T07:16:09.911Z,34.95
2018-03-06T07:19:19.903Z,34.58
2018-03-06T07:22:31.070Z,34.42
2018-03-06T07:25:41.835Z,40.25
2018-03-06T07:28:52.950Z,28.87
2018-03-06T07:32:04.371Z,28.98
2018-03-06T07:35:14.985Z,35.72
2018-03-06T07:38:25.544Z,21.20
2018-03-06T07:41:37.686Z,32.92
2018-03-06T07:44:49.406Z,40.08
2018-03-06T07:47:59.665Z,40.05
2018-03-06T07:51:10.080Z,38.95
2018-03-06T07:54:20.329Z,33.40
2018-03-06T07:57:31.248Z,29.80
2018-03-06T08:00:41.941Z,29.90
2018-03-06T08:03:52.275Z,34.58
2018-03-06T08:07:03.146Z,35.70
2018-03-06T08:10:13.397Z,35.30
2018-03-06T08:13:23.560Z,33.30
2018-03-06T08:16:34.006Z,33.08
2018-03-06T08:19:44.895Z,21.70
2018-03-06T08:22:55.951Z,30.90
2018-03-06T08:26:06.229Z,32.53
2018-03-06T08:29:17.247Z,33.13
2018-03-06T08:32:28.487Z,28.27
2018-03-06T08:35:45.450Z,32.42
2018-03-06T08:38:55.288Z,27.85
2018-03-06T08:42:06.241Z,31.67
2018-03-06T08:45:16.521Z,30.58
2018-03-06T08:48:28.039Z,35.58
2018-03-06T08:51:39.254Z,18.25
2018-03-06T08:54:53.784Z,32.95
2018-03-06T08:58:03.926Z,26.30
2018-03-06T09:01:15.150Z,33.33
2018-03-06T09:04:25.953Z,28.70
2018-03-06T09:07:36.476Z,29.33
2018-03-06T09:10:47.320Z,25.88
2018-03-06T09:13:57.881Z,34.60
2018-03-06T09:17:09.022Z,33.53
2018-03-06T09:20:19.634Z,21.70
2018-03-06T09:23:30.396Z,29.33
2018-03-06T09:26:40.495Z,27.67
2018-03-06T09:29:51.222Z,35.17
2018-03-06T09:33:01.657Z,23.48
2018-03-06T09:36:12.407Z,34.15
2018-03-06T09:39:22.271Z,38.75
2018-03-06T09:42:32.400Z,33.20
2018-03-06T09:45:42.500Z,30.35
2018-03-06T09:48:52.775Z,36.63
2018-03-06T09:52:02.879Z,33.25
2018-03-06T09:55:14.593Z,35.03
2018-03-06T09:58:24.750Z,36.35
2018-03-06T10:01:35.683Z,36.97
2018-03-06T10:04:46.105Z,30.90
2018-03-06T10:07:56.472Z,34.38
2018-03-06T10:11:07.263Z,34.13
2018-03-06T10:14:18.344Z,31.48
2018-03-06T10:17:28.753Z,34.83
2018-03-06T10:20:39.122Z,36.13
2018-03-06T10:23:49.627Z,33.95
2018-03-06T10:26:59.819Z,36.03
2018-03-06T10:30:09.888Z,34.97
2018-03-06T10:33:19.793Z,32.42
2018-03-06T10:36:29.800Z,25.15
2018-03-06T10:39:40.110Z,35.22
2018-03-06T10:42:50.971Z,31.23
2018-03-06T10:46:01.729Z,34.35
2018-03-06T10:49:12.428Z,32.20
2018-03-06T10:52:24.386Z,34.40
2018-03-06T10:55:34.164Z,18.23
2018-03-06T10:58:44.478Z,33.50
2018-03-06T11:01:57.950Z,37.60
2018-03-06T11:05:09.645Z,37.25
2018-03-06T11:08:20.527Z,34.75
2018-03-06T11:11:31.608Z,41.03
2018-03-06T11:14:43.395Z,33.70
2018-03-06T11:17:53.475Z,26.40
2018-03-06T11:21:03.831Z,32.28
2018-03-06T11:24:15.271Z,31.77
2018-03-06T11:27:25.167Z,40.55
2018-03-06T11:30:35.758Z,37.70
2018-03-06T11:33:46.182Z,34.78
2018-03-06T11:36:58.103Z,33.90
2018-03-06T11:40:08.570Z,32.28
2018-03-06T11:43:20.456Z,31.42
2018-03-06T11:46:31.222Z,28.73
2018-03-06T11:49:44.225Z,34.22
2018-03-06T11:52:54.291Z,32.05
2018-03-06T11:56:06.285Z,19.33
2018-03-06T11:59:15.886Z,35.17
2018-03-06T12:02:26.284Z,29.95
2018-03-06T12:05:36.982Z,33.33
2018-03-06T12:08:47.062Z,39.42
2018-03-06T12:11:57.031Z,32.38
2018-03-06T12:15:07.262Z,29.85
2018-03-06T12:18:17.413Z,30.60
2018-03-06T12:21:27.800Z,35.45
2018-03-06T12:24:39.459Z,28.80
2018-03-06T12:27:50.363Z,39.58
2018-03-06T12:31:00.582Z,30.83
2018-03-06T12:34:11.472Z,22.15
2018-03-06T12:37:21.548Z,38.42
2018-03-06T12:40:31.553Z,34.50
2018-03-06T12:43:41.750Z,38.50
2018-03-06T12:46:52.111Z,34.55
2018-03-06T12:50:03.677Z,37.38
2018-03-06T12:53:14.845Z,32.35
2018-03-06T12:56:25.289Z,35.53
2018-03-06T12:59:35.889Z,33.17
2018-03-06T13:02:46.566Z,33.55
2018-03-06T13:05:56.634Z,33.85
2018-03-06T13:09:06.679Z,33.30
2018-03-06T13:12:17.077Z,43.00
2018-03-06T13:15:27.103Z,37.55
2018-03-06T13:18:37.744Z,38.00
2018-03-06T13:21:48.389Z,37.25
2018-03-06T13:25:00.062Z,42.10
2018-03-06T13:28:11.166Z,32.92
2018-03-06T13:31:21.596Z,41.28
2018-03-06T13:34:31.780Z,39.55
2018-03-06T13:37:42.570Z,41.05
2018-03-06T13:40:52.519Z,40.00
2018-03-06T13:44:03.237Z,38.30
2018-03-06T13:47:13.973Z,35.13
2018-03-06T13:50:24.092Z,37.60
2018-03-06T13:53:34.497Z,40.90
2018-03-06T13:56:45.020Z,41.70
2018-03-06T13:59:55.452Z,36.20
2018-03-06T14:03:05.945Z,36.72
2018-03-06T14:06:17.243Z,33.25
2018-03-06T14:09:28.279Z,34.50
2018-03-06T14:12:38.638Z,38.88
2018-03-06T14:15:48.686Z,42.35
2018-03-06T14:18:59.538Z,42.62
2018-03-06T14:22:09.450Z,42.90
2018-03-06T14:25:19.455Z,43.42
2018-03-06T14:28:30.412Z,38.65
2018-03-06T14:31:41.814Z,45.55
2018-03-06T14:34:51.964Z,48.15
2018-03-06T14:38:03.338Z,42.13
2018-03-06T14:41:14.254Z,43.78
2018-03-06T14:44:25.083Z,46.00
2018-03-06T14:47:35.476Z,46.63
2018-03-06T14:50:45.766Z,46.33
2018-03-06T14:53:56.458Z,46.88
2018-03-06T14:57:07.961Z,43.47
2018-03-06T15:00:19.815Z,39.70
2018-03-06T15:03:30.579Z,43.20
2018-03-06T15:06:42.075Z,46.72
2018-03-06T15:09:52.860Z,45.90
2018-03-06T15:13:04.202Z,49.90
2018-03-06T15:16:14.640Z,49.88
2018-03-06T15:19:25.476Z,44.08
2018-03-06T15:22:36.303Z,52.60
2018-03-06T15:25:46.833Z,41.80
2018-03-06T15:28:57.786Z,46.63
2018-03-06T15:32:09.032Z,49.20
2018-03-06T15:35:19.662Z,54.22
2018-03-06T15:38:29.530Z,54.15
2018-03-06T15:41:40.714Z,60.08
2018-03-06T15:44:51.193Z,54.90
2018-03-06T15:48:01.850Z,63.10
2018-03-06T15:51:11.956Z,60.55
2018-03-06T15:54:22.080Z,68.93
2018-03-06T16:04:44.515Z,45.60
2018-03-06T16:07:55.495Z,61.80
2018-03-06T16:11:06.312Z,50.42
2018-03-06T16:14:17.381Z,42.62
2018-03-06T16:17:28.995Z,45.30
2018-03-06T16:20:39.479Z,35.08
2018-03-06T16:23:49.673Z,34.65
2018-03-06T16:26:59.487Z,38.53
2018-03-06T16:30:10.587Z,37.50
2018-03-06T16:33:21.495Z,33.15
2018-03-06T16:36:31.399Z,36.72
2018-03-06T16:39:41.315Z,32.45
2018-03-06T16:42:52.079Z,40.65
2018-03-06T16:56:49.570Z,32.97
2018-03-06T17:00:00.411Z,37.38
2018-03-06T17:03:10.263Z,34.72
2018-03-06T17:06:20.938Z,43.05
2018-03-06T17:09:31.569Z,44.53
2018-03-06T17:12:41.434Z,44.70
2018-03-06T17:15:52.250Z,54.67
2018-03-06T17:19:02.602Z,51.08
2018-03-06T17:22:13.310Z,44.00
2018-03-06T17:25:24.391Z,42.15
2018-03-06T17:28:34.862Z,39.58
2018-03-06T17:31:45.137Z,40.97
2018-03-06T17:34:55.057Z,36.80
2018-03-06T17:38:06.940Z,47.70
2018-03-06T17:41:18.210Z,45.88
2018-03-06T17:44:28.993Z,40.33
2018-03-06T17:47:40.497Z,37.15
2018-03-06T17:50:50.942Z,39.78
2018-03-06T17:54:01.193Z,40.78
2018-03-06T17:57:11.474Z,43.40
2018-03-06T18:00:21.808Z,44.17
2018-03-06T18:03:33.687Z,38.03
2018-03-06T18:06:44.001Z,43.13
2018-03-06T18:09:55.408Z,45.88
2018-03-06T18:13:05.667Z,39.55
2018-03-06T18:16:16.158Z,36.08
2018-03-06T18:19:26.306Z,38.20
2018-03-06T18:22:36.684Z,38.65
2018-03-06T18:25:53.144Z,38.10
2018-03-06T18:29:04.890Z,37.30
2018-03-06T18:32:21.219Z,34.22
2018-03-06T18:35:32.626Z,33.50
2018-03-06T18:38:43.712Z,40.05
2018-03-06T18:41:56.885Z,38.40
2018-03-06T18:45:10.945Z,36.60
2018-03-06T18:48:33.569Z,37.30
2018-03-06T18:51:45.717Z,38.85
2018-03-06T18:54:56.029Z,37.10
2018-03-06T18:58:06.763Z,39.22
2018-03-06T19:05:05.174Z,35.97
2018-03-06T19:08:14.561Z,41.37
2018-03-06T19:11:26.142Z,35.08
2018-03-06T19:14:36.103Z,42.25
2018-03-06T19:17:46.366Z,39.00
2018-03-06T19:20:57.147Z,39.63
2018-03-06T19:24:07.765Z,44.70
2018-03-06T19:27:21.538Z,40.72
2018-03-06T19:30:32.347Z,39.95
2018-03-06T19:33:43.300Z,37.33
2018-03-06T19:36:55.449Z,39.25
2018-03-06T19:40:05.779Z,40.78
2018-03-06T19:43:15.697Z,39.28
2018-03-06T19:46:31.572Z,37.22
2018-03-06T19:49:43.232Z,40.33
2018-03-06T19:52:54.304Z,44.15
2018-03-06T19:56:08.897Z,44.97
2018-03-06T19:59:24.478Z,43.95
2018-03-06T20:02:34.899Z,43.30
2018-03-06T20:05:45.956Z,40.78
2018-03-06T20:08:56.938Z,48.35
2018-03-06T20:12:07.333Z,46.08
2018-03-06T20:15:18.600Z,43.63
2018-03-06T20:18:29.709Z,41.83
2018-03-06T20:21:41.488Z,45.55
2018-03-06T20:24:58.827Z,46.58
2018-03-06T20:28:09.094Z,46.17
2018-03-06T20:31:26.634Z,43.42
2018-03-06T20:34:36.808Z,46.95
2018-03-06T20:37:46.715Z,45.67
2018-03-06T20:40:56.937Z,49.95
2018-03-06T20:44:08.119Z,43.00
2018-03-06T20:47:24.510Z,39.83
2018-03-06T20:50:35.682Z,41.88
2018-03-06T20:53:51.630Z,44.40
2018-03-06T20:57:02.593Z,41.63
2018-03-06T21:00:14.269Z,44.55
2018-03-06T21:03:24.799Z,41.70
2018-03-06T21:06:35.778Z,47.20
2018-03-06T21:09:46.532Z,43.05
2018-03-06T21:12:56.859Z,43.53
2018-03-06T21:16:08.522Z,44.28
2018-03-06T21:19:19.647Z,38.78
2018-03-06T21:22:30.218Z,43.60
2018-03-06T21:25:40.964Z,40.05
2018-03-06T21:28:51.481Z,41.97
2018-03-06T21:32:02.171Z,39.30
2018-03-06T21:35:14.014Z,37.63
2018-03-06T21:38:24.058Z,43.63
2018-03-06T21:41:34.978Z,40.38
2018-03-06T21:44:45.170Z,35.40
2018-03-06T21:47:56.056Z,41.75
2018-03-06T21:51:07.067Z,40.25
2018-03-06T21:54:17.771Z,37.17
2018-03-06T21:57:27.987Z,39.45
2018-03-06T22:00:38.688Z,40.08
2018-03-06T22:03:50.677Z,39.75
2018-03-06T22:07:01.224Z,36.45
2018-03-06T22:10:11.882Z,41.10
2018-03-06T22:13:23.623Z,41.90
2018-03-06T22:16:33.733Z,41.05
2018-03-06T22:19:44.527Z,41.45
2018-03-06T22:22:55.467Z,41.72
2018-03-06T22:26:06.262Z,38.22
2018-03-06T22:29:16.201Z,46.17
2018-03-06T22:32:26.273Z,44.92
2018-03-06T22:35:37.810Z,45.95
2018-03-06T22:38:49.247Z,42.92
2018-03-06T22:41:59.862Z,41.37
2018-03-06T22:45:10.918Z,42.20
2018-03-06T22:48:21.560Z,42.25
2018-03-06T22:51:31.731Z,47.25
2018-03-06T22:54:43.287Z,45.97
2018-03-06T22:57:53.607Z,46.03
2018-03-06T23:01:04.490Z,47.83
2018-03-06T23:04:14.752Z,42.05
2018-03-06T23:07:26.044Z,39.30
2018-03-06T23:10:36.682Z,45.25
2018-03-06T23:13:46.721Z,51.40
2018-03-06T23:16:57.040Z,44.05
2018-03-06T23:20:08.992Z,53.20
2018-03-06T23:23:19.533Z,46.37
2018-03-06T23:26:31.026Z,47.58
2018-03-06T23:29:41.496Z,45.78
2018-03-06T23:32:51.812Z,37.05
2018-03-06T23:36:02.033Z,37.85
2018-03-06T23:39:11.796Z,43.00
2018-03-06T23:42:22.137Z,29.90
2018-03-06T23:45:32.151Z,34.03
2018-03-06T23:48:42.389Z,43.30
2018-03-06T23:51:53.119Z,30.05
2018-03-06T23:55:03.647Z,35.45
2018-03-06T23:58:14.313Z,29.80
